createdAt,value
2023-08-13T00:00:47.959Z,4.18
2023-08-13T00:03:15.408Z,4.95
2023-08-13T00:05:42.871Z,4.50
2023-08-13T00:08:10.237Z,4.95
2023-08-13T00:10:39.788Z,5.18
2023-08-13T00:13:07.261Z,4.63
2023-08-13T00:15:34.783Z,4.93
2023-08-13T00:18:02.280Z,4.80
2023-08-13T00:20:29.724Z,5.05
2023-08-13T00:22:57.183Z,4.65
2023-08-13T00:25:24.553Z,4.80
2023-08-13T00:27:51.958Z,4.30
2023-08-13T00:30:19.626Z,4.55
2023-08-13T00:32:47.074Z,4.80
2023-08-13T00:35:14.500Z,5.15
2023-08-13T00:37:41.934Z,4.63
2023-08-13T00:40:11.744Z,4.75
2023-08-13T00:42:39.396Z,5.03
2023-08-13T00:45:07.322Z,4.85
2023-08-13T00:47:36.234Z,5.00
2023-08-13T00:50:07.423Z,4.60
2023-08-13T00:52:35.121Z,4.80
2023-08-13T00:55:04.095Z,5.25
2023-08-13T00:57:32.274Z,5.22
2023-08-13T01:00:00.427Z,4.88
2023-08-13T01:02:28.349Z,5.20
2023-08-13T01:04:56.345Z,4.82
2023-08-13T01:07:29.850Z,5.20
2023-08-13T01:10:21.920Z,5.47
2023-08-13T01:15:39.728Z,5.35
2023-08-13T01:18:08.930Z,5.10
2023-08-13T01:20:38.953Z,5.03
2023-08-13T01:23:07.000Z,5.45
2023-08-13T01:25:34.821Z,5.45
2023-08-13T01:28:22.736Z,5.35
2023-08-13T01:30:54.511Z,5.85
2023-08-13T01:36:02.190Z,5.45
2023-08-13T01:38:32.047Z,5.50
2023-08-13T01:41:02.308Z,5.05
2023-08-13T01:43:30.116Z,5.45
2023-08-13T01:46:01.444Z,5.07
2023-08-13T01:48:29.410Z,5.13
2023-08-13T01:50:56.961Z,4.78
2023-08-13T01:53:24.387Z,4.95
2023-08-13T01:55:52.116Z,5.60
2023-08-13T01:58:19.528Z,4.70
2023-08-13T02:00:47.128Z,5.15
2023-08-13T02:03:14.632Z,5.03
2023-08-13T02:05:42.095Z,4.68
2023-08-13T02:08:09.480Z,5.28
2023-08-13T02:10:37.011Z,5.53
2023-08-13T02:13:04.660Z,4.72
2023-08-13T02:15:32.215Z,5.53
2023-08-13T02:17:59.695Z,5.03
2023-08-13T02:20:27.187Z,4.78
2023-08-13T02:22:54.608Z,5.00
2023-08-13T02:25:22.393Z,5.18
2023-08-13T02:27:49.815Z,4.30
2023-08-13T02:30:18.193Z,4.43
2023-08-13T02:32:45.704Z,5.07
2023-08-13T02:35:13.238Z,5.05
2023-08-13T02:37:40.641Z,6.10
2023-08-13T02:40:08.771Z,4.85
2023-08-13T02:42:38.067Z,4.90
2023-08-13T02:45:05.919Z,5.50
2023-08-13T02:47:33.305Z,4.90
2023-08-13T02:50:01.011Z,4.80
2023-08-13T02:52:28.539Z,4.57
2023-08-13T02:54:55.974Z,5.10
2023-08-13T02:57:23.428Z,5.40
2023-08-13T02:59:50.936Z,5.38
2023-08-13T03:02:18.354Z,4.97
2023-08-13T03:04:45.835Z,5.20
2023-08-13T03:07:13.252Z,5.05
2023-08-13T03:09:40.687Z,5.40
2023-08-13T03:12:08.781Z,5.78
2023-08-13T03:14:36.733Z,5.13
2023-08-13T03:17:04.539Z,5.93
2023-08-13T03:19:31.990Z,5.50
2023-08-13T03:21:59.529Z,4.95
2023-08-13T03:24:27.046Z,5.47
2023-08-13T03:26:54.582Z,5.53
2023-08-13T03:29:22.433Z,5.45
2023-08-13T03:31:52.179Z,5.78
2023-08-13T03:34:25.240Z,5.95
2023-08-13T03:36:54.087Z,5.30
2023-08-13T03:39:21.505Z,6.15
2023-08-13T03:41:48.949Z,5.40
2023-08-13T03:44:16.458Z,5.93
2023-08-13T03:46:43.885Z,5.07
2023-08-13T03:49:11.242Z,5.22
2023-08-13T03:51:39.567Z,6.15
2023-08-13T03:54:09.981Z,6.57
2023-08-13T03:56:37.885Z,6.00
2023-08-13T03:59:05.492Z,6.50
2023-08-13T04:01:33.471Z,6.32
2023-08-13T04:04:00.993Z,6.40
2023-08-13T04:06:28.531Z,6.90
2023-08-13T04:08:56.184Z,7.13
2023-08-13T04:11:23.624Z,6.40
2023-08-13T04:13:51.058Z,6.80
2023-08-13T04:16:19.397Z,6.70
2023-08-13T04:18:48.514Z,6.75
2023-08-13T04:21:15.978Z,6.97
2023-08-13T04:23:43.492Z,6.57
2023-08-13T04:26:11.223Z,6.85
2023-08-13T04:28:38.712Z,6.75
2023-08-13T04:31:06.189Z,6.88
2023-08-13T04:33:37.259Z,7.17
2023-08-13T04:36:04.908Z,6.38
2023-08-13T04:38:32.481Z,5.88
2023-08-13T04:41:03.316Z,6.35
2023-08-13T04:43:34.460Z,6.43
2023-08-13T04:46:02.138Z,6.40
2023-08-13T04:48:49.018Z,6.28
2023-08-13T04:51:21.820Z,6.57
2023-08-13T04:53:49.973Z,6.30
2023-08-13T04:56:19.462Z,6.63
2023-08-13T04:58:46.903Z,6.95
2023-08-13T05:01:15.090Z,6.95
2023-08-13T05:03:46.464Z,6.90
2023-08-13T05:06:14.942Z,6.70
2023-08-13T05:08:43.248Z,7.13
2023-08-13T05:11:11.136Z,7.45
2023-08-13T05:13:38.953Z,7.53
2023-08-13T05:16:06.535Z,7.82
2023-08-13T05:18:34.739Z,7.45
2023-08-13T05:21:02.309Z,7.13
2023-08-13T05:23:29.784Z,6.90
2023-08-13T05:25:57.177Z,7.55
2023-08-13T05:28:25.658Z,6.65
2023-08-13T05:30:53.224Z,7.03
2023-08-13T05:33:21.676Z,6.47
2023-08-13T05:35:50.070Z,7.00
2023-08-13T05:38:17.560Z,6.63
2023-08-13T05:40:45.160Z,6.07
2023-08-13T05:43:12.597Z,5.85
2023-08-13T05:45:41.931Z,6.97
2023-08-13T05:48:09.616Z,6.55
2023-08-13T05:50:37.095Z,6.82
2023-08-13T05:53:04.820Z,6.25
2023-08-13T05:55:32.450Z,6.18
2023-08-13T05:58:00.173Z,6.93
2023-08-13T06:00:30.226Z,6.10
2023-08-13T06:02:57.856Z,6.05
2023-08-13T06:05:25.349Z,5.97
2023-08-13T06:07:52.772Z,6.40
2023-08-13T06:10:20.144Z,5.90
2023-08-13T06:12:47.612Z,5.82
2023-08-13T06:15:15.167Z,6.82
2023-08-13T06:17:47.972Z,7.25
2023-08-13T06:20:16.463Z,6.35
2023-08-13T06:22:44.566Z,6.63
2023-08-13T06:25:12.183Z,7.57
2023-08-13T06:27:39.776Z,7.35
2023-08-13T06:30:11.036Z,8.07
2023-08-13T06:35:06.728Z,7.82
2023-08-13T06:37:38.973Z,7.90
2023-08-13T06:40:18.278Z,8.05
2023-08-13T06:42:45.804Z,7.95
2023-08-13T06:45:14.096Z,8.27
2023-08-13T06:47:41.624Z,8.63
2023-08-13T06:50:09.511Z,8.27
2023-08-13T06:52:36.928Z,9.23
2023-08-13T06:55:04.698Z,8.73
2023-08-13T06:57:32.073Z,8.55
2023-08-13T06:59:59.515Z,7.75
2023-08-13T07:02:26.900Z,7.38
2023-08-13T07:04:54.494Z,7.97
2023-08-13T07:07:21.896Z,7.45
2023-08-13T07:09:49.401Z,6.70
2023-08-13T07:12:17.078Z,7.95
2023-08-13T07:14:44.770Z,6.28
2023-08-13T07:17:12.220Z,6.70
2023-08-13T07:19:39.693Z,6.75
2023-08-13T07:22:07.073Z,7.00
2023-08-13T07:24:35.283Z,6.53
2023-08-13T07:27:02.673Z,6.32
2023-08-13T07:29:30.152Z,7.32
2023-08-13T07:31:57.708Z,6.78
2023-08-13T07:34:25.406Z,7.03
2023-08-13T07:36:54.061Z,7.50
2023-08-13T07:39:21.603Z,7.15
2023-08-13T07:41:50.422Z,7.40
2023-08-13T07:44:18.147Z,7.13
2023-08-13T07:46:45.558Z,6.50
2023-08-13T07:49:13.053Z,7.82
2023-08-13T07:51:40.487Z,7.38
2023-08-13T07:54:07.905Z,7.80
2023-08-13T07:56:35.323Z,7.22
2023-08-13T07:59:02.740Z,6.65
2023-08-13T08:01:30.343Z,6.82
2023-08-13T08:03:58.010Z,4.85
2023-08-13T08:06:27.374Z,5.00
2023-08-13T08:08:56.525Z,4.95
2023-08-13T08:11:23.937Z,5.55
2023-08-13T08:13:51.377Z,5.35
2023-08-13T08:16:18.923Z,4.53
2023-08-13T08:18:46.371Z,5.13
2023-08-13T08:21:13.755Z,4.75
2023-08-13T08:23:41.852Z,3.63
2023-08-13T08:26:09.368Z,4.50
2023-08-13T08:28:39.517Z,4.13
2023-08-13T08:31:07.180Z,4.18
2023-08-13T08:33:35.098Z,4.45
2023-08-13T08:36:02.559Z,4.78
2023-08-13T08:38:29.983Z,4.88
2023-08-13T08:40:59.888Z,6.28
2023-08-13T08:43:31.070Z,4.60
2023-08-13T08:46:03.874Z,5.63
2023-08-13T08:48:33.436Z,5.40
2023-08-13T08:51:02.794Z,5.07
2023-08-13T08:53:32.099Z,5.22
2023-08-13T08:55:59.551Z,5.10
2023-08-13T08:58:28.870Z,5.00
2023-08-13T09:01:01.583Z,5.03
2023-08-13T09:03:29.588Z,4.82
2023-08-13T09:06:02.680Z,4.72
2023-08-13T09:08:33.100Z,5.35
2023-08-13T09:11:01.378Z,5.03
2023-08-13T09:13:28.780Z,5.00
2023-08-13T09:15:56.292Z,5.20
2023-08-13T09:18:23.954Z,5.38
2023-08-13T09:20:51.554Z,5.18
2023-08-13T09:23:25.348Z,5.10
2023-08-13T09:25:57.674Z,5.00
2023-08-13T09:28:26.858Z,4.25
2023-08-13T09:30:54.378Z,4.80
2023-08-13T09:33:21.822Z,5.50
2023-08-13T09:35:49.283Z,6.47
2023-08-13T09:38:16.743Z,5.20
2023-08-13T09:40:46.672Z,5.20
2023-08-13T09:43:19.268Z,5.13
2023-08-13T09:45:48.787Z,4.50
2023-08-13T09:48:18.783Z,4.43
2023-08-13T09:50:49.604Z,5.07
2023-08-13T09:53:21.698Z,5.20
2023-08-13T09:55:55.552Z,5.22
2023-08-13T09:58:23.317Z,4.95
2023-08-13T10:00:51.089Z,4.70
2023-08-13T10:03:20.183Z,4.82
2023-08-13T10:05:48.376Z,4.78
2023-08-13T10:08:16.331Z,5.20
2023-08-13T10:10:44.717Z,4.28
2023-08-13T10:13:12.406Z,4.30
2023-08-13T10:15:40.424Z,5.00
2023-08-13T10:18:08.109Z,4.72
2023-08-13T10:20:35.621Z,4.57
2023-08-13T10:23:08.278Z,4.78
2023-08-13T10:25:36.752Z,5.30
2023-08-13T10:28:24.620Z,5.22
2023-08-13T10:31:20.623Z,4.32
2023-08-13T10:33:48.187Z,5.20
2023-08-13T10:36:15.671Z,5.60
2023-08-13T10:38:43.041Z,5.63
2023-08-13T10:41:10.481Z,5.30
2023-08-13T10:43:37.875Z,5.03
2023-08-13T10:46:06.913Z,5.28
2023-08-13T10:48:34.614Z,5.30
2023-08-13T10:51:02.087Z,5.57
2023-08-13T10:53:29.751Z,4.95
2023-08-13T10:56:01.127Z,4.82
2023-08-13T10:58:51.156Z,5.07
2023-08-13T11:01:22.038Z,5.43
2023-08-13T11:03:54.704Z,4.97
2023-08-13T11:06:24.214Z,4.90
2023-08-13T11:08:52.258Z,5.18
2023-08-13T11:11:20.695Z,5.00
2023-08-13T11:13:49.879Z,5.22
2023-08-13T11:16:17.616Z,4.50
2023-08-13T11:18:45.352Z,4.70
2023-08-13T11:21:13.412Z,4.60
2023-08-13T11:23:41.186Z,4.93
2023-08-13T11:26:09.533Z,4.63
2023-08-13T11:28:37.182Z,5.55
2023-08-13T11:31:04.690Z,4.78
2023-08-13T11:33:32.229Z,4.38
2023-08-13T11:36:00.154Z,4.68
2023-08-13T11:38:27.770Z,4.35
2023-08-13T11:40:55.841Z,4.38
2023-08-13T11:43:23.714Z,4.25
2023-08-13T11:45:52.318Z,4.13
2023-08-13T11:48:22.076Z,4.60
2023-08-13T11:51:01.754Z,4.18
2023-08-13T11:53:47.209Z,4.47
2023-08-13T11:56:16.163Z,4.22
2023-08-13T11:58:43.641Z,4.20
2023-08-13T12:01:12.574Z,3.75
2023-08-13T12:03:42.300Z,4.22
2023-08-13T12:06:11.300Z,4.80
2023-08-13T12:08:38.755Z,4.28
2023-08-13T12:11:07.022Z,3.60
2023-08-13T12:13:42.497Z,4.05
2023-08-13T12:16:10.091Z,4.40
2023-08-13T12:18:37.681Z,3.47
2023-08-13T12:21:05.174Z,5.50
2023-08-13T12:23:33.080Z,3.90
2023-08-13T12:26:03.065Z,4.10
2023-08-13T12:28:30.817Z,4.22
2023-08-13T12:30:58.370Z,5.28
2023-08-13T12:33:25.929Z,4.35
2023-08-13T12:35:53.464Z,3.97
2023-08-13T12:38:20.868Z,3.70
2023-08-13T12:40:48.383Z,6.10
2023-08-13T12:43:15.803Z,4.18
2023-08-13T12:45:43.237Z,4.70
2023-08-13T12:48:10.648Z,4.22
2023-08-13T12:50:38.021Z,3.92
2023-08-13T12:53:05.556Z,4.90
2023-08-13T12:55:32.955Z,6.90
2023-08-13T12:58:00.475Z,4.78
2023-08-13T13:00:27.894Z,4.47
2023-08-13T13:02:55.409Z,4.63
2023-08-13T13:05:22.935Z,4.20
2023-08-13T13:07:50.450Z,3.90
2023-08-13T13:10:17.994Z,3.97
2023-08-13T13:12:45.658Z,3.72
2023-08-13T13:15:13.202Z,4.63
2023-08-13T13:17:40.672Z,3.80
2023-08-13T13:20:12.221Z,4.03
2023-08-13T13:22:43.708Z,3.80
2023-08-13T13:25:14.315Z,4.00
2023-08-13T13:27:42.873Z,4.38
2023-08-13T13:30:12.598Z,4.57
2023-08-13T13:32:41.012Z,3.92
2023-08-13T13:35:09.028Z,4.03
2023-08-13T13:37:36.540Z,4.40
2023-08-13T13:40:05.380Z,6.32
2023-08-13T13:42:32.880Z,5.68
2023-08-13T13:45:00.335Z,4.50
2023-08-13T13:47:27.813Z,5.03
2023-08-13T13:49:55.273Z,3.70
2023-08-13T13:52:22.880Z,3.42
2023-08-13T13:54:53.728Z,3.80
2023-08-13T13:57:21.186Z,4.07
2023-08-13T13:59:48.603Z,3.45
2023-08-13T14:02:16.344Z,3.75
2023-08-13T14:04:44.066Z,4.60
2023-08-13T14:07:11.476Z,3.30
2023-08-13T14:09:38.941Z,3.17
2023-08-13T14:12:07.506Z,3.60
2023-08-13T14:14:35.048Z,3.28
2023-08-13T14:17:03.813Z,3.30
2023-08-13T14:19:31.241Z,3.60
2023-08-13T14:21:58.703Z,3.30
2023-08-13T14:24:26.209Z,3.28
2023-08-13T14:26:53.686Z,3.17
2023-08-13T14:29:21.145Z,3.42
2023-08-13T14:31:48.982Z,3.38
2023-08-13T14:34:16.595Z,3.38
2023-08-13T14:36:44.039Z,4.15
2023-08-13T14:39:12.402Z,3.50
2023-08-13T14:41:39.888Z,3.28
2023-08-13T14:44:07.254Z,4.05
2023-08-13T14:46:34.811Z,3.90
2023-08-13T14:49:02.395Z,4.03
2023-08-13T14:51:29.829Z,3.53
2023-08-13T14:53:57.584Z,3.53
2023-08-13T14:56:25.114Z,3.63
2023-08-13T14:58:52.607Z,4.63
2023-08-13T15:01:20.142Z,3.60
2023-08-13T15:03:47.693Z,3.55
2023-08-13T15:06:15.241Z,3.08
2023-08-13T15:08:42.707Z,3.47
2023-08-13T15:11:10.110Z,3.97
2023-08-13T15:13:37.595Z,3.58
2023-08-13T15:16:05.299Z,3.45
2023-08-13T15:18:32.942Z,2.92
2023-08-13T15:21:00.335Z,3.78
2023-08-13T15:23:27.748Z,3.47
2023-08-13T15:25:56.867Z,3.58
2023-08-13T15:28:25.204Z,3.10
2023-08-13T15:30:56.991Z,3.70
2023-08-13T15:33:25.774Z,3.58
2023-08-13T15:35:55.171Z,3.45
2023-08-13T15:38:23.840Z,3.80
2023-08-13T15:40:51.816Z,3.45
2023-08-13T15:43:19.391Z,3.53
2023-08-13T15:45:46.795Z,3.53
2023-08-13T15:48:14.479Z,3.40
2023-08-13T15:50:41.959Z,3.35
2023-08-13T15:53:09.377Z,4.28
2023-08-13T15:55:40.273Z,3.90
2023-08-13T15:58:08.445Z,3.47
2023-08-13T16:00:37.033Z,3.70
2023-08-13T16:03:05.143Z,3.70
2023-08-13T16:05:33.307Z,3.83
2023-08-13T16:08:00.909Z,3.80
2023-08-13T16:10:30.158Z,3.53
2023-08-13T16:12:57.654Z,4.25
2023-08-13T16:15:25.306Z,3.90
2023-08-13T16:17:52.806Z,3.85
2023-08-13T16:20:20.431Z,4.40
2023-08-13T16:22:47.890Z,3.60
2023-08-13T16:25:15.844Z,3.85
2023-08-13T16:27:43.422Z,3.65
2023-08-13T16:30:11.825Z,3.92
2023-08-13T16:32:39.634Z,3.88
2023-08-13T16:35:08.101Z,4.22
2023-08-13T16:37:35.578Z,3.78
2023-08-13T16:40:03.363Z,3.60
2023-08-13T16:42:37.806Z,4.20
2023-08-13T16:45:14.616Z,4.10
2023-08-13T16:47:42.096Z,4.30
2023-08-13T16:50:15.207Z,4.13
2023-08-13T16:52:43.319Z,4.32
2023-08-13T16:55:12.643Z,3.72
2023-08-13T16:57:40.148Z,4.40
2023-08-13T17:00:11.381Z,4.32
2023-08-13T17:02:42.734Z,4.28
2023-08-13T17:05:11.089Z,4.20
2023-08-13T17:07:39.370Z,4.20
2023-08-13T17:10:07.391Z,4.13
2023-08-13T17:12:34.877Z,3.63
2023-08-13T17:15:16.804Z,4.03
2023-08-13T17:17:49.841Z,4.13
2023-08-13T17:20:21.300Z,4.47
2023-08-13T17:22:50.063Z,4.20
2023-08-13T17:25:17.679Z,4.00
2023-08-13T17:27:46.535Z,3.92
2023-08-13T17:30:14.244Z,4.40
2023-08-13T17:32:41.680Z,3.92
2023-08-13T17:35:09.680Z,3.78
2023-08-13T17:37:37.389Z,4.13
2023-08-13T17:40:06.384Z,4.20
2023-08-13T17:42:33.891Z,3.97
2023-08-13T17:45:01.451Z,3.92
2023-08-13T17:47:29.890Z,3.78
2023-08-13T17:49:58.306Z,3.75
2023-08-13T17:52:28.752Z,3.97
2023-08-13T17:54:56.297Z,3.90
2023-08-13T17:57:23.945Z,4.07
2023-08-13T17:59:51.408Z,3.55
2023-08-13T18:02:29.065Z,4.20
2023-08-13T18:04:56.992Z,4.20
2023-08-13T18:07:27.509Z,4.05
2023-08-13T18:09:55.554Z,3.45
2023-08-13T18:12:23.231Z,4.28
2023-08-13T18:14:51.877Z,3.80
2023-08-13T18:17:19.845Z,3.55
2023-08-13T18:19:48.305Z,3.83
2023-08-13T18:22:15.717Z,3.97
2023-08-13T18:24:43.138Z,4.43
2023-08-13T18:27:10.539Z,4.30
2023-08-13T18:29:37.977Z,3.63
2023-08-13T18:32:05.603Z,4.50
2023-08-13T18:34:33.053Z,4.53
2023-08-13T18:37:00.464Z,4.13
2023-08-13T18:39:27.870Z,4.28
2023-08-13T18:41:55.464Z,4.50
2023-08-13T18:44:22.902Z,3.50
2023-08-13T18:46:50.467Z,3.92
2023-08-13T18:49:17.937Z,3.90
2023-08-13T18:51:45.417Z,3.70
2023-08-13T18:54:12.848Z,3.97
2023-08-13T18:56:40.876Z,3.80
2023-08-13T18:59:09.554Z,4.05
2023-08-13T19:01:37.051Z,4.07
2023-08-13T19:04:06.083Z,4.00
2023-08-13T19:06:33.585Z,3.97
2023-08-13T19:09:01.027Z,4.15
2023-08-13T19:11:28.675Z,3.05
2023-08-13T19:13:56.215Z,3.58
2023-08-13T19:16:24.121Z,4.40
2023-08-13T19:18:52.118Z,5.20
2023-08-13T19:21:19.687Z,4.82
2023-08-13T19:23:47.171Z,4.85
2023-08-13T19:26:14.693Z,4.85
2023-08-13T19:28:42.096Z,4.95
2023-08-13T19:31:09.691Z,5.10
2023-08-13T19:33:38.342Z,4.82
2023-08-13T19:36:07.023Z,4.85
2023-08-13T19:38:34.446Z,4.80
2023-08-13T19:41:01.981Z,4.68
2023-08-13T19:43:29.550Z,4.57
2023-08-13T19:45:57.089Z,5.05
2023-08-13T19:48:24.501Z,4.50
2023-08-13T19:50:52.891Z,4.40
2023-08-13T19:53:20.663Z,4.45
2023-08-13T19:55:50.856Z,5.32
2023-08-13T19:58:18.702Z,4.88
2023-08-13T20:00:46.109Z,5.18
2023-08-13T20:03:16.977Z,4.57
2023-08-13T20:05:44.677Z,5.40
2023-08-13T20:08:12.164Z,5.38
2023-08-13T20:10:39.604Z,5.07
2023-08-13T20:13:07.035Z,5.18
2023-08-13T20:15:34.502Z,5.07
2023-08-13T20:18:01.980Z,5.10
2023-08-13T20:20:29.824Z,5.72
2023-08-13T20:22:57.268Z,6.32
2023-08-13T20:25:24.750Z,6.03
2023-08-13T20:27:52.197Z,5.50
2023-08-13T20:30:19.678Z,5.18
2023-08-13T20:32:47.193Z,4.90
2023-08-13T20:35:14.696Z,4.90
2023-08-13T20:37:42.087Z,4.75
2023-08-13T20:40:10.808Z,5.72
2023-08-13T20:42:38.265Z,5.68
2023-08-13T20:45:07.812Z,6.38
2023-08-13T20:47:35.492Z,6.28
2023-08-13T20:50:05.334Z,6.00
2023-08-13T20:52:33.150Z,5.88
2023-08-13T20:55:02.554Z,6.43
2023-08-13T20:57:30.245Z,6.05
2023-08-13T20:59:58.143Z,6.18
2023-08-13T21:02:25.544Z,5.72
2023-08-13T21:04:53.061Z,5.07
2023-08-13T21:07:20.440Z,6.03
2023-08-13T21:09:47.785Z,5.82
2023-08-13T21:12:15.581Z,5.72
2023-08-13T21:14:43.171Z,6.75
2023-08-13T21:17:10.576Z,6.55
2023-08-13T21:19:38.079Z,6.70
2023-08-13T21:22:05.561Z,6.82
2023-08-13T21:24:32.952Z,6.30
2023-08-13T21:27:00.427Z,6.25
2023-08-13T21:29:27.818Z,5.60
2023-08-13T21:31:57.077Z,6.03
2023-08-13T21:34:24.495Z,5.45
2023-08-13T21:36:51.949Z,5.82
2023-08-13T21:39:19.396Z,5.18
2023-08-13T21:41:47.738Z,5.00
2023-08-13T21:44:15.089Z,5.65
2023-08-13T21:46:42.478Z,5.40
2023-08-13T21:49:09.904Z,4.82
2023-08-13T21:51:37.293Z,4.85
2023-08-13T21:54:04.905Z,4.97
2023-08-13T21:56:32.301Z,4.93
2023-08-13T21:58:59.698Z,4.60
2023-08-13T22:01:27.407Z,4.93
2023-08-13T22:03:55.017Z,5.38
2023-08-13T22:06:22.685Z,5.47
2023-08-13T22:08:50.105Z,5.15
2023-08-13T22:11:17.487Z,5.00
2023-08-13T22:13:44.916Z,5.10
2023-08-13T22:16:12.340Z,5.18
2023-08-13T22:18:40.063Z,5.25
2023-08-13T22:21:07.508Z,4.70
2023-08-13T22:23:34.920Z,4.97
2023-08-13T22:26:16.235Z,5.25
2023-08-13T22:28:46.106Z,4.82
2023-08-13T22:31:13.893Z,5.47
2023-08-13T22:33:42.284Z,5.45
2023-08-13T22:36:09.770Z,4.90
2023-08-13T22:38:37.284Z,5.32
2023-08-13T22:41:04.940Z,5.30
2023-08-13T22:43:32.290Z,5.18
2023-08-13T22:45:59.754Z,5.32
2023-08-13T22:48:27.345Z,4.95
2023-08-13T22:50:54.851Z,5.38
2023-08-13T22:53:22.247Z,5.30
2023-08-13T22:55:49.654Z,5.15
2023-08-13T22:58:17.060Z,5.25
2023-08-13T23:00:44.527Z,5.75
2023-08-13T23:03:11.958Z,5.10
2023-08-13T23:05:39.497Z,5.22
2023-08-13T23:08:06.906Z,4.82
2023-08-13T23:10:34.520Z,5.38
2023-08-13T23:13:01.882Z,5.32
2023-08-13T23:15:29.335Z,5.63
2023-08-13T23:17:56.876Z,6.28
2023-08-13T23:20:24.352Z,5.00
2023-08-13T23:22:55.021Z,5.53
2023-08-13T23:25:22.420Z,5.20
2023-08-13T23:27:49.916Z,4.80
2023-08-13T23:30:17.360Z,5.70
2023-08-13T23:32:44.820Z,5.28
2023-08-13T23:35:12.222Z,5.30
2023-08-13T23:37:39.713Z,5.40
2023-08-13T23:40:08.941Z,5.32
2023-08-13T23:42:36.410Z,4.93
2023-08-13T23:45:05.095Z,5.35
2023-08-13T23:47:32.569Z,5.28
2023-08-13T23:50:00.866Z,5.15
2023-08-13T23:52:32.035Z,5.07
2023-08-13T23:54:59.450Z,5.63
2023-08-13T23:57:26.959Z,4.90
2023-08-13T23:59:54.509Z,4.95
